Terminal Aerodrome Forecast
Issued by NWS Corpus Christi, TX

Home | Current Version | Previous Version | Text Only | Print | Product List | Glossary On
Versions: 1 2 3 4 5 6 7 8 9 10 11 12 13 14 15 16
818
FTUS44 KCRP 251127
TAFVCT
TAF
KVCT 251127Z 2512/2612 14004KT P6SM FEW015
      TEMPO 2512/2514 4SM BR SCT015
     FM251400 16005KT P6SM VCSH SCT025
      TEMPO 2514/2517 BKN025
     FM251800 14008KT P6SM VCTS BKN035CB
      TEMPO 2519/2523 5SM TSRA OVC025CB
     FM260000 13010KT P6SM SCT040 BKN250
     FM260300 11006KT P6SM SCT020 SCT250
     FM260800 08004KT P6SM VCSH BKN015 BKN120=

USA.gov is the U.S. government's official web portal to all federal, state and local government web resources and services.